createdAt,value
2019-03-28T00:01:19.886Z,88.72
2019-03-28T00:03:48.148Z,87.40
2019-03-28T00:06:16.486Z,87.95
2019-03-28T00:08:44.694Z,87.75
2019-03-28T00:11:13.547Z,88.10
2019-03-28T00:13:41.803Z,87.57
2019-03-28T00:16:10.083Z,87.33
2019-03-28T00:18:38.342Z,87.55
2019-03-28T00:21:06.627Z,87.32
2019-03-28T00:23:36.528Z,88.09
2019-03-28T00:26:04.816Z,87.90
2019-03-28T00:28:33.073Z,88.27
2019-03-28T00:31:01.350Z,88.79
2019-03-28T00:33:29.611Z,89.27
2019-03-28T00:35:57.896Z,89.27
2019-03-28T00:38:26.156Z,89.04
2019-03-28T00:40:55.243Z,88.67
2019-03-28T00:43:24.254Z,88.78
2019-03-28T00:45:53.067Z,88.87
2019-03-28T00:48:21.334Z,88.80
2019-03-28T00:50:49.610Z,88.78
2019-03-28T00:53:17.878Z,89.10
2019-03-28T00:55:46.491Z,89.02
2019-03-28T00:58:14.746Z,89.01
2019-03-28T01:00:43.033Z,89.02
2019-03-28T01:03:11.391Z,89.72
2019-03-28T01:05:39.653Z,89.90
2019-03-28T01:08:07.915Z,90.11
2019-03-28T01:10:36.200Z,90.41
2019-03-28T01:13:04.458Z,90.27
2019-03-28T01:15:33.409Z,90.08
2019-03-28T01:18:02.535Z,89.66
2019-03-28T01:20:30.815Z,90.00
2019-03-28T01:22:59.076Z,90.20
2019-03-28T01:25:27.536Z,90.06
2019-03-28T01:27:55.894Z,90.23
2019-03-28T01:30:24.180Z,90.31
2019-03-28T01:32:53.268Z,90.27
2019-03-28T01:35:21.670Z,89.91
2019-03-28T01:37:49.927Z,89.83
2019-03-28T01:40:18.187Z,89.99
2019-03-28T01:42:46.471Z,90.19
2019-03-28T01:45:15.499Z,90.44
2019-03-28T01:47:43.779Z,90.62
2019-03-28T01:50:12.042Z,90.64
2019-03-28T01:52:40.322Z,90.38
2019-03-28T01:55:08.586Z,90.15
2019-03-28T01:57:36.881Z,90.36
2019-03-28T02:00:07.695Z,90.43
2019-03-28T02:02:38.757Z,90.30
2019-03-28T02:05:07.888Z,90.43
2019-03-28T02:07:36.166Z,90.21
2019-03-28T02:10:05.368Z,90.12
2019-03-28T02:12:33.653Z,90.18
2019-03-28T02:15:01.915Z,89.95
2019-03-28T02:17:30.962Z,89.87
2019-03-28T02:19:59.225Z,89.50
2019-03-28T02:22:27.508Z,88.42
2019-03-28T02:24:56.539Z,88.94
2019-03-28T02:27:25.873Z,89.15
2019-03-28T02:29:54.372Z,88.51
2019-03-28T02:32:22.728Z,87.64
2019-03-28T02:34:51.061Z,87.64
2019-03-28T02:37:19.345Z,88.07
2019-03-28T02:39:47.599Z,88.39
2019-03-28T02:42:15.879Z,88.34
2019-03-28T02:44:44.134Z,88.33
2019-03-28T02:47:12.419Z,87.79
2019-03-28T02:49:40.945Z,87.78
2019-03-28T02:52:09.790Z,87.62
2019-03-28T02:54:38.048Z,87.85
2019-03-28T02:57:07.695Z,87.22
2019-03-28T02:59:36.473Z,87.60
2019-03-28T03:02:04.819Z,87.75
2019-03-28T03:04:33.091Z,87.84
2019-03-28T03:07:01.365Z,87.85
2019-03-28T03:09:29.618Z,87.59
2019-03-28T03:11:57.905Z,87.40
2019-03-28T03:14:26.169Z,87.42
2019-03-28T03:16:54.450Z,87.85
2019-03-28T03:19:22.714Z,87.80
2019-03-28T03:21:50.986Z,87.76
2019-03-28T03:24:19.249Z,88.14
2019-03-28T03:26:47.539Z,88.52
2019-03-28T03:29:16.904Z,88.40
2019-03-28T03:31:45.204Z,88.60
2019-03-28T03:34:13.463Z,88.87
2019-03-28T03:36:41.742Z,88.52
2019-03-28T03:39:10.568Z,88.81
2019-03-28T03:41:38.866Z,88.33
2019-03-28T03:44:07.113Z,88.84
2019-03-28T03:46:36.169Z,88.85
2019-03-28T03:49:04.843Z,88.98
2019-03-28T03:51:33.552Z,88.73
2019-03-28T03:54:01.817Z,88.95
2019-03-28T03:56:30.076Z,89.42
2019-03-28T03:58:58.941Z,89.07
2019-03-28T04:01:27.479Z,89.15
2019-03-28T04:03:56.544Z,88.97
2019-03-28T04:06:25.832Z,89.18
2019-03-28T04:08:54.139Z,89.33
2019-03-28T04:11:22.370Z,88.95
2019-03-28T04:13:50.677Z,89.24
2019-03-28T04:16:18.940Z,89.31
2019-03-28T04:18:47.995Z,89.02
2019-03-28T04:21:17.604Z,89.27
2019-03-28T04:23:45.982Z,89.84
2019-03-28T04:26:14.819Z,89.59
2019-03-28T04:28:43.092Z,90.28
2019-03-28T04:31:12.688Z,90.32
2019-03-28T04:33:40.973Z,91.26
2019-03-28T04:36:09.226Z,90.62
2019-03-28T04:38:38.614Z,90.88
2019-03-28T04:41:06.869Z,90.54
2019-03-28T04:43:35.149Z,91.33
2019-03-28T04:46:03.405Z,90.61
2019-03-28T04:48:31.691Z,90.58
2019-03-28T04:51:01.343Z,90.90
2019-03-28T04:53:29.820Z,90.85
2019-03-28T04:55:58.022Z,91.30
2019-03-28T04:58:26.306Z,91.45
2019-03-28T05:00:54.568Z,90.83
2019-03-28T05:03:23.486Z,90.91
2019-03-28T05:05:51.788Z,90.97
2019-03-28T05:08:20.392Z,91.06
2019-03-28T05:10:48.645Z,90.99
2019-03-28T05:13:17.803Z,90.79
2019-03-28T05:15:46.062Z,91.23
2019-03-28T05:18:14.629Z,91.24
2019-03-28T05:20:43.657Z,91.18
2019-03-28T05:23:11.939Z,90.35
2019-03-28T05:25:40.195Z,90.39
2019-03-28T05:28:08.477Z,90.43
2019-03-28T05:30:36.745Z,90.75
2019-03-28T05:33:05.023Z,90.89
2019-03-28T05:35:33.285Z,91.08
2019-03-28T05:38:02.393Z,90.38
2019-03-28T05:40:31.788Z,89.90
2019-03-28T05:43:00.814Z,90.09
2019-03-28T05:45:29.104Z,90.25
2019-03-28T05:48:00.209Z,90.46
2019-03-28T05:50:27.366Z,91.03
2019-03-28T05:52:55.622Z,90.98
2019-03-28T05:55:23.906Z,90.78
2019-03-28T05:57:52.162Z,90.78
2019-03-28T06:00:20.450Z,90.42
2019-03-28T06:02:48.707Z,90.52
2019-03-28T06:05:17.763Z,90.71
2019-03-28T06:07:46.022Z,90.48
2019-03-28T06:10:16.328Z,90.03
2019-03-28T06:12:44.801Z,89.77
2019-03-28T06:15:13.511Z,89.54
2019-03-28T06:17:41.766Z,88.76
2019-03-28T06:20:10.046Z,89.63
2019-03-28T06:22:38.307Z,89.30
2019-03-28T06:25:06.607Z,89.57
2019-03-28T06:27:35.779Z,89.51
2019-03-28T06:30:06.460Z,89.63
2019-03-28T06:32:42.846Z,88.44
2019-03-28T06:35:05.592Z,88.63
2019-03-28T06:37:33.850Z,88.95
2019-03-28T06:40:02.431Z,88.52
2019-03-28T06:42:30.694Z,88.63
2019-03-28T06:44:59.746Z,88.68
2019-03-28T06:47:28.008Z,89.15
2019-03-28T06:49:56.666Z,88.78
2019-03-28T06:52:25.593Z,88.61
2019-03-28T06:54:54.344Z,88.86
2019-03-28T06:57:23.547Z,87.71
2019-03-28T06:59:51.826Z,88.31
2019-03-28T07:02:22.089Z,88.32
2019-03-28T07:04:51.191Z,88.54
2019-03-28T07:07:19.728Z,87.85
2019-03-28T07:09:48.011Z,86.93
2019-03-28T07:12:16.274Z,86.44
2019-03-28T07:14:44.555Z,85.97
2019-03-28T07:17:12.811Z,86.53
2019-03-28T07:19:41.671Z,85.98
2019-03-28T07:22:10.382Z,83.95
2019-03-28T07:24:38.769Z,84.48
2019-03-28T07:27:07.032Z,85.07
2019-03-28T07:29:35.320Z,86.05
2019-03-28T07:32:03.580Z,85.05
2019-03-28T07:34:32.931Z,84.24
2019-03-28T07:37:01.193Z,83.60
2019-03-28T07:39:29.451Z,83.92
2019-03-28T07:41:58.303Z,84.46
2019-03-28T07:44:26.559Z,86.13
2019-03-28T07:46:54.839Z,84.38
2019-03-28T07:49:23.097Z,83.43
2019-03-28T07:51:52.155Z,84.88
2019-03-28T07:54:20.398Z,85.26
2019-03-28T07:56:49.418Z,82.89
2019-03-28T07:59:17.721Z,84.50
2019-03-28T08:01:45.999Z,82.81
2019-03-28T08:04:14.264Z,84.56
2019-03-28T08:06:49.559Z,81.77
2019-03-28T08:09:12.535Z,81.78
2019-03-28T08:11:40.820Z,81.21
2019-03-28T08:14:09.078Z,81.05
2019-03-28T08:16:37.364Z,79.92
2019-03-28T08:19:07.997Z,79.18
2019-03-28T08:21:35.644Z,79.31
2019-03-28T08:24:04.062Z,78.65
2019-03-28T08:26:32.910Z,77.90
2019-03-28T08:29:01.259Z,78.85
2019-03-28T08:31:29.528Z,78.25
2019-03-28T08:33:57.787Z,79.03
2019-03-28T08:36:26.067Z,78.90
2019-03-28T08:38:54.327Z,78.73
2019-03-28T08:41:22.608Z,79.66
2019-03-28T08:43:50.866Z,76.50
2019-03-28T08:46:19.151Z,77.02
2019-03-28T08:48:48.527Z,76.41
2019-03-28T08:51:16.816Z,76.80
2019-03-28T08:53:45.072Z,75.86
2019-03-28T08:56:13.837Z,75.83
2019-03-28T08:58:42.097Z,77.31
2019-03-28T09:01:10.381Z,76.83
2019-03-28T09:03:38.660Z,77.90
2019-03-28T09:06:07.495Z,77.94
2019-03-28T09:08:36.429Z,77.92
2019-03-28T09:11:05.079Z,78.02
2019-03-28T09:13:33.336Z,79.98
2019-03-28T09:16:02.186Z,78.65
2019-03-28T09:18:30.448Z,73.08
2019-03-28T09:20:58.744Z,74.67
2019-03-28T09:23:26.993Z,71.62
2019-03-28T09:25:55.275Z,72.00
2019-03-28T09:28:23.537Z,71.12
2019-03-28T09:30:51.821Z,72.37
2019-03-28T09:33:20.082Z,70.22
2019-03-28T09:35:48.375Z,67.62
2019-03-28T09:38:16.639Z,71.18
2019-03-28T09:40:45.450Z,73.62
2019-03-28T09:43:13.739Z,67.90
2019-03-28T09:45:42.001Z,66.87
2019-03-28T09:48:11.871Z,68.30
2019-03-28T09:50:40.486Z,63.41
2019-03-28T09:53:09.439Z,66.61
2019-03-28T09:55:38.472Z,69.57
2019-03-28T09:58:06.755Z,69.23
2019-03-28T10:00:35.016Z,67.25
2019-03-28T10:03:03.875Z,62.50
2019-03-28T10:05:32.136Z,62.05
2019-03-28T10:08:00.414Z,62.83
2019-03-28T10:10:28.677Z,62.16
2019-03-28T10:12:56.959Z,64.47
2019-03-28T10:15:25.226Z,67.27
2019-03-28T10:17:54.872Z,63.71
2019-03-28T10:20:23.411Z,65.27
2019-03-28T10:22:51.692Z,67.55
2019-03-28T10:25:19.951Z,63.07
2019-03-28T10:27:48.902Z,60.66
2019-03-28T10:30:17.159Z,61.16
2019-03-28T10:32:45.433Z,62.45
2019-03-28T10:35:16.946Z,62.05
2019-03-28T10:37:45.223Z,61.26
2019-03-28T10:40:14.051Z,62.09
2019-03-28T10:42:42.331Z,61.58
2019-03-28T10:45:11.160Z,63.84
2019-03-28T10:47:39.445Z,63.59
2019-03-28T10:50:07.699Z,62.49
2019-03-28T10:52:35.979Z,63.21
2019-03-28T10:55:04.862Z,63.13
2019-03-28T10:57:33.138Z,64.47
2019-03-28T11:00:01.416Z,62.95
2019-03-28T11:02:29.684Z,63.28
2019-03-28T11:04:57.931Z,62.20
2019-03-28T11:07:26.209Z,62.11
2019-03-28T11:09:54.462Z,61.12
2019-03-28T11:12:22.845Z,58.20
2019-03-28T11:14:51.074Z,59.95
2019-03-28T11:17:19.429Z,60.05
2019-03-28T11:19:47.683Z,59.91
2019-03-28T11:22:15.962Z,57.85
2019-03-28T11:24:46.319Z,60.73
2019-03-28T11:27:14.232Z,59.07
2019-03-28T11:29:42.481Z,58.01
2019-03-28T11:32:10.741Z,59.74
2019-03-28T11:34:40.337Z,60.19
2019-03-28T11:39:39.437Z,61.98
2019-03-28T11:42:07.693Z,58.47
2019-03-28T11:42:35.505Z,61.35
2019-03-28T11:44:35.980Z,62.67
2019-03-28T11:47:04.229Z,60.17
2019-03-28T11:49:32.505Z,60.55
2019-03-28T11:52:00.764Z,60.55
2019-03-28T11:54:29.038Z,59.68
2019-03-28T11:56:57.294Z,58.18
2019-03-28T11:59:26.347Z,59.51
2019-03-28T12:02:00.492Z,59.54
2019-03-28T12:04:24.611Z,59.24
2019-03-28T12:06:52.891Z,59.79
2019-03-28T12:09:21.171Z,62.16
2019-03-28T12:11:52.669Z,59.35
2019-03-28T12:14:19.426Z,60.67
2019-03-28T12:16:47.686Z,60.91
2019-03-28T12:19:17.724Z,61.34
2019-03-28T12:21:45.946Z,61.05
2019-03-28T12:24:14.801Z,60.13
2019-03-28T12:26:43.064Z,60.63
2019-03-28T12:36:57.733Z,61.75
2019-03-28T12:39:26.013Z,61.52
2019-03-28T12:41:54.272Z,62.39
2019-03-28T12:44:22.561Z,60.63
2019-03-28T12:46:50.805Z,61.13
2019-03-28T12:49:19.087Z,60.74
2019-03-28T12:51:47.342Z,63.76
2019-03-28T12:54:15.622Z,62.20
2019-03-28T12:56:43.875Z,61.29
2019-03-28T12:59:12.474Z,62.07
2019-03-28T13:01:41.059Z,62.12
2019-03-28T13:04:09.338Z,61.30
2019-03-28T13:06:38.364Z,61.65
2019-03-28T13:09:09.830Z,62.90
2019-03-28T13:11:38.108Z,60.31
2019-03-28T13:14:06.385Z,59.65
2019-03-28T13:16:34.646Z,59.94
2019-03-28T13:19:02.922Z,60.65
2019-03-28T13:21:31.177Z,59.54
2019-03-28T13:23:59.458Z,59.51
2019-03-28T13:26:27.710Z,59.03
2019-03-28T13:28:56.030Z,59.73
2019-03-28T13:31:24.320Z,60.76
2019-03-28T13:33:52.600Z,59.30
2019-03-28T13:36:21.427Z,60.15
2019-03-28T13:38:49.697Z,59.95
2019-03-28T13:41:17.948Z,60.19
2019-03-28T13:43:46.225Z,61.04
2019-03-28T13:46:14.477Z,59.25
2019-03-28T13:48:42.734Z,60.34
2019-03-28T13:51:11.011Z,59.76
2019-03-28T13:53:40.085Z,61.04
2019-03-28T13:56:08.519Z,61.62
2019-03-28T13:58:36.784Z,62.40
2019-03-28T14:01:05.058Z,63.45
2019-03-28T14:03:33.310Z,62.30
2019-03-28T14:06:01.587Z,60.69
2019-03-28T14:08:29.843Z,60.91
2019-03-28T14:10:58.686Z,60.27
2019-03-28T14:13:26.946Z,60.96
2019-03-28T14:15:55.222Z,61.47
2019-03-28T14:18:23.472Z,61.39
2019-03-28T14:20:52.321Z,60.71
2019-03-28T14:23:20.662Z,63.47
2019-03-28T14:25:48.938Z,61.95
2019-03-28T14:28:17.198Z,64.06
2019-03-28T14:30:45.477Z,62.79
2019-03-28T14:33:15.918Z,63.11
2019-03-28T14:35:43.753Z,62.33
2019-03-28T14:38:12.015Z,62.97
2019-03-28T14:40:40.290Z,64.06
2019-03-28T14:43:10.725Z,63.04
2019-03-28T14:45:38.718Z,62.07
2019-03-28T14:48:07.151Z,61.88
2019-03-28T14:50:39.646Z,61.68
2019-03-28T14:53:07.830Z,60.92
2019-03-28T14:55:36.114Z,62.10
2019-03-28T14:58:04.711Z,62.01
2019-03-28T15:00:47.970Z,62.19
2019-03-28T15:03:25.660Z,63.87
2019-03-28T15:05:46.289Z,61.11
2019-03-28T15:08:14.546Z,61.72
2019-03-28T15:10:42.831Z,62.48
2019-03-28T15:13:11.858Z,62.35
2019-03-28T15:15:40.134Z,62.01
2019-03-28T15:18:09.169Z,61.29
2019-03-28T15:20:37.444Z,61.68
2019-03-28T15:23:05.703Z,62.06
2019-03-28T15:25:33.978Z,60.58
2019-03-28T15:28:02.239Z,61.18
2019-03-28T15:30:30.514Z,62.25
2019-03-28T15:32:58.770Z,61.26
2019-03-28T15:35:27.042Z,61.42
2019-03-28T15:37:55.296Z,61.34
2019-03-28T15:40:23.577Z,61.61
2019-03-28T15:42:51.828Z,61.53
2019-03-28T15:45:20.110Z,61.63
2019-03-28T15:47:48.360Z,60.46
2019-03-28T15:50:16.634Z,60.67
2019-03-28T15:52:44.885Z,63.56
2019-03-28T15:55:14.660Z,62.51
2019-03-28T15:57:43.302Z,64.19
2019-03-28T16:00:11.571Z,61.54
2019-03-28T16:02:39.893Z,62.02
2019-03-28T16:05:08.174Z,60.18
2019-03-28T16:07:37.203Z,61.33
2019-03-28T16:10:08.266Z,61.23
2019-03-28T16:12:36.521Z,61.52
2019-03-28T16:15:07.342Z,60.09
2019-03-28T16:17:35.596Z,61.01
2019-03-28T16:20:05.106Z,61.67
2019-03-28T16:22:33.358Z,61.88
2019-03-28T16:25:01.654Z,61.48
2019-03-28T16:27:29.902Z,61.89
2019-03-28T16:29:58.156Z,62.02
2019-03-28T16:32:26.473Z,62.09
2019-03-28T16:34:54.684Z,61.90
2019-03-28T16:37:22.970Z,63.41
2019-03-28T16:39:51.221Z,63.42
2019-03-28T16:42:19.498Z,62.61
2019-03-28T16:44:48.324Z,64.37
2019-03-28T16:47:16.598Z,63.70
2019-03-28T16:49:44.850Z,63.78
2019-03-28T16:52:15.829Z,63.80
2019-03-28T16:54:44.081Z,64.28
2019-03-28T16:57:12.930Z,64.47
2019-03-28T16:59:41.188Z,65.81
2019-03-28T17:02:09.467Z,65.82
2019-03-28T17:04:37.743Z,65.74
2019-03-28T17:07:06.878Z,66.41
2019-03-28T17:09:37.568Z,65.50
2019-03-28T17:12:05.163Z,66.69
2019-03-28T17:14:33.399Z,65.55
2019-03-28T17:17:02.243Z,64.79
2019-03-28T17:19:30.499Z,65.53
2019-03-28T17:21:58.779Z,66.07
2019-03-28T17:24:28.031Z,67.00
2019-03-28T17:26:56.402Z,66.60
2019-03-28T17:29:25.000Z,66.64
2019-03-28T17:31:53.274Z,66.41
2019-03-28T17:34:34.205Z,66.64
2019-03-28T17:36:52.369Z,66.87
2019-03-28T17:39:20.631Z,67.15
2019-03-28T17:41:50.250Z,66.75
2019-03-28T17:44:18.507Z,67.83
2019-03-28T17:46:46.786Z,67.56
2019-03-28T17:49:15.062Z,66.35
2019-03-28T17:51:43.325Z,67.65
2019-03-28T17:54:11.961Z,67.61
2019-03-28T17:56:40.429Z,67.40
2019-03-28T17:59:08.681Z,69.02
2019-03-28T18:01:36.960Z,67.89
2019-03-28T18:04:05.861Z,68.73
2019-03-28T18:06:35.418Z,68.01
2019-03-28T18:09:05.296Z,68.71
2019-03-28T18:11:33.569Z,69.72
2019-03-28T18:14:02.597Z,71.42
2019-03-28T18:16:30.870Z,68.95
2019-03-28T18:18:59.121Z,69.60
2019-03-28T18:21:27.448Z,69.12
2019-03-28T18:23:55.696Z,70.45
2019-03-28T18:26:23.949Z,71.08
2019-03-28T18:28:52.228Z,73.11
2019-03-28T18:31:21.250Z,72.47
2019-03-28T18:33:49.526Z,72.92
2019-03-28T18:36:18.548Z,73.08
2019-03-28T18:38:46.825Z,72.88
2019-03-28T18:41:15.079Z,73.62
2019-03-28T18:43:43.349Z,73.26
2019-03-28T18:46:14.752Z,73.71
2019-03-28T18:48:42.170Z,73.40
2019-03-28T18:51:11.093Z,73.85
2019-03-28T18:53:39.373Z,74.37
2019-03-28T18:56:07.621Z,74.59
2019-03-28T18:58:35.902Z,74.58
2019-03-28T19:01:04.152Z,75.34
2019-03-28T19:03:33.267Z,75.56
2019-03-28T19:06:03.151Z,75.82
2019-03-28T19:08:31.424Z,76.51
2019-03-28T19:10:59.677Z,75.34
2019-03-28T19:13:27.949Z,73.96
2019-03-28T19:15:56.200Z,75.99
2019-03-28T19:18:25.712Z,76.07
2019-03-28T19:20:54.693Z,76.37
2019-03-28T19:23:24.827Z,75.62
2019-03-28T19:25:53.167Z,75.99
2019-03-28T19:28:28.812Z,75.38
2019-03-28T19:30:51.432Z,75.92
2019-03-28T19:33:19.709Z,75.75
2019-03-28T19:35:47.962Z,75.64
2019-03-28T19:38:17.038Z,76.72
2019-03-28T19:40:45.213Z,77.05
2019-03-28T19:43:20.331Z,76.56
2019-03-28T19:45:43.471Z,75.77
2019-03-28T19:48:11.748Z,76.25
2019-03-28T19:50:40.004Z,75.99
2019-03-28T19:53:11.565Z,76.20
2019-03-28T19:55:39.885Z,77.42
2019-03-28T19:58:08.260Z,76.98
2019-03-28T20:00:36.514Z,77.57
2019-03-28T20:03:04.772Z,76.94
2019-03-28T20:05:46.434Z,77.57
2019-03-28T20:08:14.681Z,77.90
2019-03-28T20:10:33.598Z,77.30
2019-03-28T20:13:05.088Z,77.10
2019-03-28T20:15:32.431Z,76.61
2019-03-28T20:18:00.677Z,76.14
2019-03-28T20:20:28.953Z,77.37
2019-03-28T20:22:57.207Z,77.31
2019-03-28T20:25:26.253Z,78.20
2019-03-28T20:27:54.579Z,77.66
2019-03-28T20:30:24.758Z,77.98
2019-03-28T20:32:53.010Z,76.07
2019-03-28T20:35:22.022Z,76.08
2019-03-28T20:37:50.415Z,76.01
2019-03-28T20:40:19.262Z,76.62
2019-03-28T20:42:47.512Z,76.21
2019-03-28T20:45:15.958Z,75.75
2019-03-28T20:47:44.886Z,76.19
2019-03-28T20:50:13.252Z,76.81
2019-03-28T20:52:42.074Z,77.63
2019-03-28T20:55:10.360Z,77.55
2019-03-28T20:57:40.421Z,77.58
2019-03-28T21:00:09.021Z,78.32
2019-03-28T21:02:37.400Z,78.77
2019-03-28T21:05:08.597Z,79.32
2019-03-28T21:07:36.855Z,79.44
2019-03-28T21:10:06.069Z,79.52
2019-03-28T21:12:34.322Z,79.76
2019-03-28T21:15:02.603Z,79.91
2019-03-28T21:17:32.222Z,80.00
2019-03-28T21:20:00.861Z,80.03
2019-03-28T21:22:29.120Z,80.08
2019-03-28T21:24:57.385Z,80.03
2019-03-28T21:27:25.644Z,80.06
2019-03-28T21:29:53.917Z,79.91
2019-03-28T21:32:23.610Z,80.17
2019-03-28T21:34:51.889Z,80.03
2019-03-28T21:37:20.140Z,79.84
2019-03-28T21:39:48.422Z,79.65
2019-03-28T21:42:17.240Z,80.14
2019-03-28T21:44:45.520Z,80.03
2019-03-28T21:47:13.773Z,80.10
2019-03-28T21:49:42.049Z,80.21
2019-03-28T21:52:11.084Z,80.61
2019-03-28T21:54:39.354Z,80.55
2019-03-28T21:57:07.605Z,80.56
2019-03-28T21:59:35.889Z,80.82
2019-03-28T22:02:04.146Z,80.25
2019-03-28T22:04:32.453Z,80.26
2019-03-28T22:07:00.715Z,80.05
2019-03-28T22:09:28.966Z,80.57
2019-03-28T22:12:00.469Z,79.69
2019-03-28T22:14:27.241Z,79.79
2019-03-28T22:16:55.510Z,79.36
2019-03-28T22:19:24.012Z,79.58
2019-03-28T22:21:52.294Z,79.95
2019-03-28T22:24:20.556Z,79.61
2019-03-28T22:26:48.840Z,80.08
2019-03-28T22:29:17.364Z,79.93
2019-03-28T22:31:45.640Z,79.37
2019-03-28T22:34:13.892Z,78.50
2019-03-28T22:36:56.258Z,78.26
2019-03-28T22:39:12.784Z,78.07
2019-03-28T22:41:41.101Z,78.49
2019-03-28T22:44:09.353Z,78.05
2019-03-28T22:46:39.794Z,78.78
2019-03-28T22:49:08.375Z,79.31
2019-03-28T22:51:36.649Z,79.51
2019-03-28T22:54:04.974Z,79.04
2019-03-28T22:56:33.265Z,79.80
2019-03-28T22:59:01.508Z,80.71
2019-03-28T23:01:29.786Z,80.32
2019-03-28T23:03:58.372Z,80.23
2019-03-28T23:06:26.718Z,79.88
2019-03-28T23:08:54.979Z,80.15
2019-03-28T23:11:23.260Z,79.60
2019-03-28T23:13:52.837Z,80.00
2019-03-28T23:16:21.501Z,79.37
2019-03-28T23:18:49.769Z,79.64
2019-03-28T23:21:18.049Z,79.26
2019-03-28T23:23:46.305Z,79.53
2019-03-28T23:26:14.587Z,79.34
2019-03-28T23:28:42.844Z,80.10
2019-03-28T23:31:11.121Z,79.71
2019-03-28T23:33:39.380Z,80.45
2019-03-28T23:36:07.662Z,80.49
2019-03-28T23:38:35.919Z,81.39
2019-03-28T23:41:04.206Z,80.94
2019-03-28T23:43:32.463Z,80.67
2019-03-28T23:46:00.748Z,80.35
2019-03-28T23:48:29.011Z,80.57
2019-03-28T23:50:57.294Z,80.60
2019-03-28T23:53:25.555Z,80.56
2019-03-28T23:55:53.832Z,80.21
2019-03-28T23:58:22.090Z,80.46
